地図

経路データ

SID SEASON NUMBER BASIN SUBBASIN NAME ISO_TIME NATURE LAT LON WMO_WIND WMO_PRES WMO_AGENCY TRACK_TYPE DIST2LAND LANDFALL IFLAG USA_AGENCY USA_ATCF_ID USA_LAT USA_LON USA_RECORD USA_STATUS USA_WIND USA_PRES USA_SSHS USA_R34_NE USA_R34_SE USA_R34_SW USA_R34_NW USA_R50_NE USA_R50_SE USA_R50_SW USA_R50_NW USA_R64_NE USA_R64_SE USA_R64_SW USA_R64_NW USA_POCI USA_ROCI USA_RMW USA_EYE TOKYO_LAT TOKYO_LON TOKYO_GRADE TOKYO_WIND TOKYO_PRES TOKYO_R50_DIR TOKYO_R50_LONG TOKYO_R50_SHORT TOKYO_R30_DIR TOKYO_R30_LONG TOKYO_R30_SHORT TOKYO_LAND CMA_LAT CMA_LON CMA_CAT CMA_WIND CMA_PRES HKO_LAT HKO_LON HKO_CAT HKO_WIND HKO_PRES NEWDELHI_LAT NEWDELHI_LON NEWDELHI_GRADE NEWDELHI_WIND NEWDELHI_PRES NEWDELHI_CI NEWDELHI_DP NEWDELHI_POCI REUNION_LAT REUNION_LON REUNION_TYPE REUNION_WIND REUNION_PRES REUNION_TNUM REUNION_CI REUNION_RMW REUNION_R34_NE REUNION_R34_SE REUNION_R34_SW REUNION_R34_NW REUNION_R50_NE REUNION_R50_SE REUNION_R50_SW REUNION_R50_NW REUNION_R64_NE REUNION_R64_SE REUNION_R64_SW REUNION_R64_NW BOM_LAT BOM_LON BOM_TYPE BOM_WIND BOM_PRES BOM_TNUM BOM_CI BOM_RMW BOM_R34_NE BOM_R34_SE BOM_R34_SW BOM_R34_NW BOM_R50_NE BOM_R50_SE BOM_R50_SW BOM_R50_NW BOM_R64_NE BOM_R64_SE BOM_R64_SW BOM_R64_NW BOM_ROCI BOM_POCI BOM_EYE BOM_POS_METHOD BOM_PRES_METHOD NADI_LAT NADI_LON NADI_CAT NADI_WIND NADI_PRES WELLINGTON_LAT WELLINGTON_LON WELLINGTON_WIND WELLINGTON_PRES DS824_LAT DS824_LON DS824_STAGE DS824_WIND DS824_PRES TD9636_LAT TD9636_LON TD9636_STAGE TD9636_WIND TD9636_PRES TD9635_LAT TD9635_LON TD9635_WIND TD9635_PRES TD9635_ROCI NEUMANN_LAT NEUMANN_LON NEUMANN_CLASS NEUMANN_WIND NEUMANN_PRES MLC_LAT MLC_LON MLC_CLASS MLC_WIND MLC_PRES USA_GUST BOM_GUST BOM_GUST_PER REUNION_GUST REUNION_GUST_PER USA_SEAHGT USA_SEARAD_NE USA_SEARAD_SE USA_SEARAD_SW USA_SEARAD_NW STORM_SPEED STORM_DIR
1922251N19088 1922 48 NI BB NOT_NAMED 1922-09-08 00:00:00 TS 18.8000 88.0000 main 214 214 _________O____ -1 18.8000 88.0000 TC 30 0 0
1922251N19088 1922 48 NI BB NOT_NAMED 1922-09-08 03:00:00 TS 18.8000 88.0000 main 214 214 _________PO___ -1 18.8000 88.0000 TC 30 18.8000 88.0000 1 0 0
1922251N19088 1922 48 NI BB NOT_NAMED 1922-09-08 06:00:00 TS 18.8013 87.9931 main 214 214 _________OP___ -1 18.8000 88.0000 TC 30 18.8032 87.9828 1 0 0
1922251N19088 1922 48 NI BB NOT_NAMED 1922-09-08 09:00:00 TS 18.8022 87.9882 main 214 214 _________PP___ -1 18.8000 88.0000 TC 30 18.8051 87.9725 1 0 0
1922251N19088 1922 48 NI BB NOT_NAMED 1922-09-08 12:00:00 TS 18.8022 87.9880 main 214 214 _________OP___ -1 18.8000 88.0000 TC 30 18.8044 87.9760 1 0 0
1922251N19088 1922 48 NI BB NOT_NAMED 1922-09-08 15:00:00 TS 18.8000 88.0000 main 214 214 _________PO___ -1 18.8000 88.0000 TC 30 18.8000 88.0000 1 0 99
1922251N19088 1922 48 NI BB NOT_NAMED 1922-09-08 18:00:00 TS 18.7959 88.0223 main 214 214 _________OP___ -1 18.8000 88.0000 TC 30 18.7917 88.0446 1 1 102
1922251N19088 1922 48 NI BB NOT_NAMED 1922-09-08 21:00:00 TS 18.7886 88.0562 main 222 214 _________PP___ -1 18.7925 88.0300 TC 30 18.7847 88.0824 1 0 0
1922251N19088 1922 48 NI BB NOT_NAMED 1922-09-09 00:00:00 TS 18.7927 88.0395 main 214 206 _________OP___ -1 18.8000 88.0000 TC 30 18.7854 88.0790 1 1 284
1922251N19088 1922 48 NI BB NOT_NAMED 1922-09-09 03:00:00 TS 18.8212 87.9263 main 206 183 _________PO___ -1 18.8424 87.8525 TC 30 18.8000 88.0000 1 3 282
1922251N19088 1922 48 NI BB NOT_NAMED 1922-09-09 06:00:00 TS 18.8619 87.6980 main 183 161 _________OP___ -1 18.9000 87.6000 TC 30 18.8237 87.7959 1 5 279
1922251N19088 1922 48 NI BB NOT_NAMED 1922-09-09 09:00:00 TS 18.9028 87.3875 main 161 133 _________PP___ -1 18.9426 87.2575 TC 30 18.8629 87.5174 1 6 279
1922251N19088 1922 48 NI BB NOT_NAMED 1922-09-09 12:00:00 TS 18.9603 87.0526 main 133 119 _________OP___ -1 19.0000 86.9000 TC 30 18.9206 87.2052 1 6 283
1922251N19088 1922 48 NI BB NOT_NAMED 1922-09-09 15:00:00 TS 19.0425 86.7637 main 119 102 _________PO___ -1 19.0849 86.6275 TC 30 19.0000 86.9000 1 5 292
1922251N19088 1922 48 NI BB NOT_NAMED 1922-09-09 18:00:00 TS 19.1388 86.5744 main 102 84 _________OP___ -1 19.2000 86.4000 TC 30 19.0776 86.7488 1 4 304
1922251N19088 1922 48 NI BB NOT_NAMED 1922-09-09 21:00:00 TS 19.2497 86.4362 main 84 56 _________PP___ -1 19.3194 86.2745 TC 30 19.1801 86.5980 1 5 306
1922251N19088 1922 48 NI BB NOT_NAMED 1922-09-10 00:00:00 TS 19.4088 86.1866 main 56 22 _________OP___ -1 19.5000 86.0000 TC 30 19.3176 86.3733 1 8 299
1922251N19088 1922 48 NI BB NOT_NAMED 1922-09-10 03:00:00 TS 19.6427 85.6702 main 22 0 _________PO___ -1 19.7854 85.3403 TC 30 19.5000 86.0000 1 13 293
1922251N19088 1922 48 NI BB NOT_NAMED 1922-09-10 06:00:00 TS 19.9126 84.9398 main 0 0 _________OP___ -1 20.1000 84.5000 TC 30 19.7253 85.3796 1 15 290
1922251N19088 1922 48 NI BB NOT_NAMED 1922-09-10 09:00:00 TS 20.1710 84.1538 main 0 0 _________PP___ -1 20.3498 83.6996 TC 30 19.9921 84.6080 1 16 289
1922251N19088 1922 48 NI BB NOT_NAMED 1922-09-10 12:00:00 TS 20.4438 83.3286 main 0 0 _________OP___ -1 20.6000 82.9000 TC 30 20.2876 83.7573 1 16 290
1922251N19088 1922 48 NI BB NOT_NAMED 1922-09-10 15:00:00 TS 20.7423 82.5211 main 0 0 _________PO___ -1 20.8846 82.1422 TC 30 20.6000 82.9000 1 16 293
1922251N19088 1922 48 NI BB NOT_NAMED 1922-09-10 18:00:00 TS 21.0402 81.7966 main 0 0 _________OP___ -1 21.2000 81.4000 TC 30 20.9203 82.0940 1 15 295
1922251N19088 1922 48 NI BB NOT_NAMED 1922-09-10 21:00:00 TS 21.3644 81.0635 main 0 0 _________PP___ -1 21.5432 80.6533 TC 30 21.2452 81.3370 1 15 296
1922251N19088 1922 48 NI BB NOT_NAMED 1922-09-11 00:00:00 TS 21.6818 80.3743 main 0 0 _________OP___ -1 21.9000 79.9000 TC 30 21.5727 80.6114 1 12 296
1922251N19088 1922 48 NI BB NOT_NAMED 1922-09-11 03:00:00 NR 21.9000 79.9000 main 0 __________O___ -1 TC 21.9000 79.9000 1 10 296

IBTrACS Databaseについて

本データベースは、米国NOAAが公開する1842年以降の世界の熱帯低気圧のベストトラックデータアーカイブInternational Best Track Archive for Climate Stewardship (IBTrACS)を、ウェブで閲覧しやすい形式に変換したものです。

最終更新日:2021-12-06